sensor_id;sensor_type;location;lat;lon;timestamp;temperature;humidity
44731;DHT22;30458;47.448;19.032;2023-07-13T00:01:44;27.00;93.90
44731;DHT22;30458;47.448;19.032;2023-07-13T00:11:51;27.20;93.60
44731;DHT22;30458;47.448;19.032;2023-07-13T00:21:55;27.20;92.90
44731;DHT22;30458;47.448;19.032;2023-07-13T00:31:58;27.10;92.50
44731;DHT22;30458;47.448;19.032;2023-07-13T00:42:03;26.90;92.90
44731;DHT22;30458;47.448;19.032;2023-07-13T00:52:07;26.70;92.40
44731;DHT22;30458;47.448;19.032;2023-07-13T01:02:10;26.60;93.70
44731;DHT22;30458;47.448;19.032;2023-07-13T01:12:12;26.40;93.50
44731;DHT22;30458;47.448;19.032;2023-07-13T01:22:19;26.40;93.20
44731;DHT22;30458;47.448;19.032;2023-07-13T01:32:22;26.50;93.10
44731;DHT22;30458;47.448;19.032;2023-07-13T01:42:29;26.60;93.00
44731;DHT22;30458;47.448;19.032;2023-07-13T01:52:30;26.60;93.30
44731;DHT22;30458;47.448;19.032;2023-07-13T02:02:35;26.50;93.40
44731;DHT22;30458;47.448;19.032;2023-07-13T02:12:37;26.50;93.40
44731;DHT22;30458;47.448;19.032;2023-07-13T02:22:38;26.40;93.60
44731;DHT22;30458;47.448;19.032;2023-07-13T02:32:38;26.50;93.80
44731;DHT22;30458;47.448;19.032;2023-07-13T02:42:40;26.40;93.90
44731;DHT22;30458;47.448;19.032;2023-07-13T02:52:40;26.30;94.10
44731;DHT22;30458;47.448;19.032;2023-07-13T03:02:41;26.20;94.30
44731;DHT22;30458;47.448;19.032;2023-07-13T03:12:45;26.10;94.30
44731;DHT22;30458;47.448;19.032;2023-07-13T03:22:57;26.10;94.50
44731;DHT22;30458;47.448;19.032;2023-07-13T03:33:02;26.00;94.60
44731;DHT22;30458;47.448;19.032;2023-07-13T03:43:05;26.10;94.80
44731;DHT22;30458;47.448;19.032;2023-07-13T03:53:06;26.10;94.60
44731;DHT22;30458;47.448;19.032;2023-07-13T04:03:08;26.40;94.20
44731;DHT22;30458;47.448;19.032;2023-07-13T04:13:11;26.50;94.10
44731;DHT22;30458;47.448;19.032;2023-07-13T04:23:16;26.60;93.80
44731;DHT22;30458;47.448;19.032;2023-07-13T04:33:20;26.30;94.10
44731;DHT22;30458;47.448;19.032;2023-07-13T04:43:25;26.10;94.60
44731;DHT22;30458;47.448;19.032;2023-07-13T04:53:30;25.90;95.20
44731;DHT22;30458;47.448;19.032;2023-07-13T05:03:31;25.70;95.90
44731;DHT22;30458;47.448;19.032;2023-07-13T05:13:34;25.40;96.90
44731;DHT22;30458;47.448;19.032;2023-07-13T05:23:39;24.20;99.20
44731;DHT22;30458;47.448;19.032;2023-07-13T05:33:42;22.80;99.90
44731;DHT22;30458;47.448;19.032;2023-07-13T05:43:43;22.10;99.90
44731;DHT22;30458;47.448;19.032;2023-07-13T05:53:43;21.90;99.90
44731;DHT22;30458;47.448;19.032;2023-07-13T06:03:47;21.80;99.90
44731;DHT22;30458;47.448;19.032;2023-07-13T06:13:48;21.50;99.90
44731;DHT22;30458;47.448;19.032;2023-07-13T06:23:50;21.60;99.90
44731;DHT22;30458;47.448;19.032;2023-07-13T06:33:51;21.80;99.90
44731;DHT22;30458;47.448;19.032;2023-07-13T06:43:57;21.70;99.90
44731;DHT22;30458;47.448;19.032;2023-07-13T06:53:58;22.10;99.90
44731;DHT22;30458;47.448;19.032;2023-07-13T07:03:58;22.50;99.90
44731;DHT22;30458;47.448;19.032;2023-07-13T07:13:59;23.30;99.90
44731;DHT22;30458;47.448;19.032;2023-07-13T07:24:03;24.50;99.90
44731;DHT22;30458;47.448;19.032;2023-07-13T07:34:06;24.20;99.90
44731;DHT22;30458;47.448;19.032;2023-07-13T07:44:10;24.50;99.90
44731;DHT22;30458;47.448;19.032;2023-07-13T07:54:11;25.00;99.90
44731;DHT22;30458;47.448;19.032;2023-07-13T08:04:14;25.80;99.90
44731;DHT22;30458;47.448;19.032;2023-07-13T08:14:15;27.20;98.70
44731;DHT22;30458;47.448;19.032;2023-07-13T08:24:23;28.10;97.50
44731;DHT22;30458;47.448;19.032;2023-07-13T08:34:24;28.80;96.40
44731;DHT22;30458;47.448;19.032;2023-07-13T08:44:56;28.70;96.10
44731;DHT22;30458;47.448;19.032;2023-07-13T08:55:03;29.00;95.40
44731;DHT22;30458;47.448;19.032;2023-07-13T09:15:34;28.40;96.60
44731;DHT22;30458;47.448;19.032;2023-07-13T09:25:38;28.10;96.00
44731;DHT22;30458;47.448;19.032;2023-07-13T09:35:41;27.90;96.20
44731;DHT22;30458;47.448;19.032;2023-07-13T09:45:45;27.90;97.00
44731;DHT22;30458;47.448;19.032;2023-07-13T09:55:48;28.10;97.40
44731;DHT22;30458;47.448;19.032;2023-07-13T10:06:00;28.20;96.10
44731;DHT22;30458;47.448;19.032;2023-07-13T10:16:01;28.20;95.80
44731;DHT22;30458;47.448;19.032;2023-07-13T10:26:07;28.10;95.70
44731;DHT22;30458;47.448;19.032;2023-07-13T10:36:32;28.00;95.40
44731;DHT22;30458;47.448;19.032;2023-07-13T10:46:34;28.10;96.00
44731;DHT22;30458;47.448;19.032;2023-07-13T10:56:35;28.30;94.90
44731;DHT22;30458;47.448;19.032;2023-07-13T11:06:41;28.50;94.80
44731;DHT22;30458;47.448;19.032;2023-07-13T11:16:46;28.60;94.00
44731;DHT22;30458;47.448;19.032;2023-07-13T11:36:48;28.70;93.10
44731;DHT22;30458;47.448;19.032;2023-07-13T11:46:56;28.70;93.00
44731;DHT22;30458;47.448;19.032;2023-07-13T12:07:30;28.90;93.20
44731;DHT22;30458;47.448;19.032;2023-07-13T12:17:31;28.90;93.90
44731;DHT22;30458;47.448;19.032;2023-07-13T12:27:32;28.70;93.60
44731;DHT22;30458;47.448;19.032;2023-07-13T12:37:36;28.70;93.30
44731;DHT22;30458;47.448;19.032;2023-07-13T12:47:41;28.90;93.60
44731;DHT22;30458;47.448;19.032;2023-07-13T12:57:56;28.70;93.70
44731;DHT22;30458;47.448;19.032;2023-07-13T13:08:01;29.10;93.00
44731;DHT22;30458;47.448;19.032;2023-07-13T13:18:04;29.60;92.30
44731;DHT22;30458;47.448;19.032;2023-07-13T13:28:12;29.30;92.20
44731;DHT22;30458;47.448;19.032;2023-07-13T13:38:19;29.20;92.40
44731;DHT22;30458;47.448;19.032;2023-07-13T13:48:26;29.00;92.10
44731;DHT22;30458;47.448;19.032;2023-07-13T13:58:33;29.00;92.20
44731;DHT22;30458;47.448;19.032;2023-07-13T14:08:33;29.00;92.00
44731;DHT22;30458;47.448;19.032;2023-07-13T14:18:37;28.90;92.00
44731;DHT22;30458;47.448;19.032;2023-07-13T14:28:41;28.90;92.10
44731;DHT22;30458;47.448;19.032;2023-07-13T14:38:43;28.70;93.00
44731;DHT22;30458;47.448;19.032;2023-07-13T14:48:44;28.60;92.90
44731;DHT22;30458;47.448;19.032;2023-07-13T14:58:45;28.70;92.70
44731;DHT22;30458;47.448;19.032;2023-07-13T15:08:46;28.50;92.20
44731;DHT22;30458;47.448;19.032;2023-07-13T15:18:48;28.60;91.90
44731;DHT22;30458;47.448;19.032;2023-07-13T15:28:51;28.50;91.90
44731;DHT22;30458;47.448;19.032;2023-07-13T15:38:55;28.40;92.10
44731;DHT22;30458;47.448;19.032;2023-07-13T15:48:57;28.30;92.70
44731;DHT22;30458;47.448;19.032;2023-07-13T15:59:02;28.30;92.90
44731;DHT22;30458;47.448;19.032;2023-07-13T16:09:07;28.20;92.40
44731;DHT22;30458;47.448;19.032;2023-07-13T16:19:11;28.20;92.50
44731;DHT22;30458;47.448;19.032;2023-07-13T16:29:16;28.30;92.50
44731;DHT22;30458;47.448;19.032;2023-07-13T16:39:17;28.30;93.40
44731;DHT22;30458;47.448;19.032;2023-07-13T16:49:23;28.40;93.40
44731;DHT22;30458;47.448;19.032;2023-07-13T16:59:30;28.30;93.20
44731;DHT22;30458;47.448;19.032;2023-07-13T17:09:32;28.30;93.30
44731;DHT22;30458;47.448;19.032;2023-07-13T17:19:34;28.30;93.70
44731;DHT22;30458;47.448;19.032;2023-07-13T17:29:35;28.20;93.70
44731;DHT22;30458;47.448;19.032;2023-07-13T17:39:39;28.00;94.30
44731;DHT22;30458;47.448;19.032;2023-07-13T17:49:44;28.00;94.30
44731;DHT22;30458;47.448;19.032;2023-07-13T17:59:47;28.00;94.60
44731;DHT22;30458;47.448;19.032;2023-07-13T18:09:51;27.60;95.20
44731;DHT22;30458;47.448;19.032;2023-07-13T18:19:52;27.60;95.60
44731;DHT22;30458;47.448;19.032;2023-07-13T18:29:55;27.40;95.50
44731;DHT22;30458;47.448;19.032;2023-07-13T18:39:58;27.60;93.00
44731;DHT22;30458;47.448;19.032;2023-07-13T18:50:01;27.50;90.50
44731;DHT22;30458;47.448;19.032;2023-07-13T19:00:02;27.30;90.70
44731;DHT22;30458;47.448;19.032;2023-07-13T19:10:08;27.10;93.10
44731;DHT22;30458;47.448;19.032;2023-07-13T19:20:15;27.00;93.60
44731;DHT22;30458;47.448;19.032;2023-07-13T19:30:23;26.80;93.00
44731;DHT22;30458;47.448;19.032;2023-07-13T19:40:27;26.80;93.30
44731;DHT22;30458;47.448;19.032;2023-07-13T19:50:29;26.60;95.90
44731;DHT22;30458;47.448;19.032;2023-07-13T20:00:30;26.70;96.20
44731;DHT22;30458;47.448;19.032;2023-07-13T20:10:35;26.50;95.70
44731;DHT22;30458;47.448;19.032;2023-07-13T20:20:39;26.40;96.80
44731;DHT22;30458;47.448;19.032;2023-07-13T20:30:45;26.20;96.30
44731;DHT22;30458;47.448;19.032;2023-07-13T20:40:48;25.70;94.90
44731;DHT22;30458;47.448;19.032;2023-07-13T20:50:56;25.50;94.00
44731;DHT22;30458;47.448;19.032;2023-07-13T21:00:57;25.50;94.10
44731;DHT22;30458;47.448;19.032;2023-07-13T21:10:58;25.20;94.30
44731;DHT22;30458;47.448;19.032;2023-07-13T21:20:59;24.70;95.40
44731;DHT22;30458;47.448;19.032;2023-07-13T21:31:02;24.70;95.30
44731;DHT22;30458;47.448;19.032;2023-07-13T21:41:14;24.80;95.40
44731;DHT22;30458;47.448;19.032;2023-07-13T21:51:28;25.10;95.40
44731;DHT22;30458;47.448;19.032;2023-07-13T22:01:33;25.30;95.50
44731;DHT22;30458;47.448;19.032;2023-07-13T22:11:36;25.40;95.60
44731;DHT22;30458;47.448;19.032;2023-07-13T22:21:37;25.30;95.80
44731;DHT22;30458;47.448;19.032;2023-07-13T22:31:38;25.20;96.10
44731;DHT22;30458;47.448;19.032;2023-07-13T22:41:39;25.30;96.00
44731;DHT22;30458;47.448;19.032;2023-07-13T22:51:42;25.00;96.40
44731;DHT22;30458;47.448;19.032;2023-07-13T23:01:46;25.00;96.30
44731;DHT22;30458;47.448;19.032;2023-07-13T23:11:47;25.00;96.70
44731;DHT22;30458;47.448;19.032;2023-07-13T23:21:50;24.90;96.40
44731;DHT22;30458;47.448;19.032;2023-07-13T23:31:54;24.90;96.40
44731;DHT22;30458;47.448;19.032;2023-07-13T23:41:57;24.80;96.20
44731;DHT22;30458;47.448;19.032;2023-07-13T23:52:03;24.90;96.40
